Bow Fagus — LAUE4 — position and weather

sailwx.info

Track history (hours):
 
Tides and Currents Weather Stations Pressure Air Temp Water Temp Dewpoint Dewpoint Depression Visibility Wind Speed Wind Dir Waves Ship Positions

Bow Fagus

Last reported at 2017-Oct-16 11:15 UTC. Time now 2017-Oct-18 01:59 UTC.
Position N 34°55' E 019°50'.

Length 184 m; draft 10.8 m.

Type: Ship (hazmat cat C). MMSI: 258924000.

Date/timePositionNaut miles runAvg speedWind from/ knotsBaromVisibWave heightAir tempDewpointWater temp
2017-Oct-16 11:15N 34°55' E 019°50'412.9
2017-Oct-16 10:58N 34°56' E 019°46'713.0
2017-Oct-16 10:27N 34°58' E 019°38'19013.2
2017-Oct-15 20:03N 35°52' E 015°54'113.4
2017-Oct-15 19:58N 35°53' E 015°52'1813.4
2017-Oct-15 18:39N 35°59' E 015°32'213.5
2017-Oct-15 18:29N 36°00' E 015°30'1613.7
2017-Oct-15 17:18N 36°06' E 015°11'413.8
2017-Oct-15 17:00N 36°08' E 015°07'713.7
2017-Oct-15 16:30N 36°10' E 014°58'713.8
2017-Oct-15 16:00N 36°12' E 014°50'713.8
2017-Oct-15 15:30N 36°14' E 014°42'713.8
2017-Oct-15 15:00N 36°16' E 014°34'1413.7
2017-Oct-15 14:00N 36°20' E 014°18'713.7
2017-Oct-15 13:30N 36°22' E 014°10'713.8
2017-Oct-15 13:00N 36°25' E 014°02'713.8
2017-Oct-15 12:30N 36°27' E 013°54'713.7
2017-Oct-15 12:00N 36°30' E 013°46'713.7
2017-Oct-15 11:30N 36°32' E 013°38'713.6
2017-Oct-15 11:00N 36°35' E 013°30'813.6
2017-Oct-15 10:27N 36°37' E 013°21'613.7
2017-Oct-15 10:00N 36°39' E 013°14'713.5
2017-Oct-15 09:30N 36°41' E 013°06'913.3
2017-Oct-15 08:50N 36°45' E 012°56'3113.5
2017-Oct-15 06:33N 36°54' E 012°19'1313.3
2017-Oct-15 05:36N 37°00' E 012°05'113.2
2017-Oct-15 05:30N 37°01' E 012°04'713.3
2017-Oct-15 05:00N 37°05' E 011°57'613.2
2017-Oct-15 04:30N 37°07' E 011°49'713.3
2017-Oct-15 04:00N 37°10' E 011°41'34113.0
2017-Oct-14 01:46N 37°32' E 004°34'813.3
2017-Oct-14 01:08N 37°31' E 004°23'213.3
2017-Oct-14 01:00N 37°30' E 004°21'713.2
2017-Oct-14 00:30N 37°29' E 004°13'713.1
2017-Oct-14 00:00N 37°29' E 004°05'713.1
2017-Oct-13 23:30N 37°28' E 003°56'613.0
2017-Oct-13 23:00N 37°27' E 003°48'613.0
2017-Oct-13 22:30N 37°26' E 003°40'712.9
2017-Oct-13 22:00N 37°25' E 003°32'713.1
2017-Oct-13 21:27N 37°23' E 003°23'613.2
2017-Oct-13 20:59N 37°21' E 003°16'713.1
2017-Oct-13 20:26N 37°19' E 003°07'613.1
2017-Oct-13 20:00N 37°18' E 003°00'613.1
2017-Oct-13 19:30N 37°16' E 002°53'612.8
2017-Oct-13 19:00N 37°15' E 002°45'612.9
2017-Oct-13 18:30N 37°13' E 002°37'712.9
2017-Oct-13 17:59N 37°12' E 002°29'612.9
2017-Oct-13 17:30N 37°11' E 002°21'612.8
2017-Oct-13 17:00N 37°09' E 002°13'612.8
2017-Oct-13 16:30N 37°08' E 002°05'713.0
2017-Oct-13 16:00N 37°06' E 001°58'612.9
2017-Oct-13 15:30N 37°04' E 001°50'713.0
2017-Oct-13 15:00N 37°03' E 001°42'713.1
2017-Oct-13 14:30N 37°01' E 001°34'713.3
2017-Oct-13 14:00N 36°59' E 001°26'713.4
2017-Oct-13 13:30N 36°58' E 001°18'713.3
2017-Oct-13 13:00N 36°56' E 001°10'613.1
2017-Oct-13 12:30N 36°55' E 001°02'813.1
2017-Oct-13 11:55N 36°53' E 000°52'612.9
2017-Oct-13 11:30N 36°52' E 000°46'813.4
2017-Oct-13 10:53N 36°50' E 000°36'513.4
2017-Oct-13 10:30N 36°48' E 000°30'713.4
2017-Oct-13 10:00N 36°46' E 000°22'713.4
2017-Oct-13 09:28N 36°44' E 000°13'613.3
2017-Oct-13 09:00N 36°43' E 000°05'713.5
2017-Oct-13 08:28N 36°41' W 000°03'813.5
2017-Oct-13 07:53N 36°39' W 000°13'513.5
2017-Oct-13 07:30N 36°38' W 000°19'713.4
2017-Oct-13 06:58N 36°36' W 000°28'613.3
2017-Oct-13 06:30N 36°35' W 000°35'713.5
2017-Oct-13 06:00N 36°33' W 000°43'713.6
2017-Oct-13 05:29N 36°32' W 000°52'713.4
2017-Oct-13 04:59N 36°30' W 000°60'1913.5
2017-Oct-13 03:35N 36°25' W 001°23'213.7
2017-Oct-13 03:27N 36°25' W 001°25'714.0
2017-Oct-13 02:57N 36°23' W 001°33'17113.4
2017-Oct-12 14:14N 36°05' W 005°04'312.9
2017-Oct-12 14:00N 36°05' W 005°07'713.3
2017-Oct-12 13:31N 36°05' W 005°16'510.3
2017-Oct-12 13:00N 36°07' W 005°22'1 1.5
2017-Oct-12 12:29N 36°07' W 005°22'0 0.0
2017-Oct-12 11:53N 36°07' W 005°22'0 0.0
2017-Oct-12 11:23N 36°07' W 005°22'0 0.0
2017-Oct-12 10:59N 36°07' W 005°22'0 0.0
2017-Oct-12 10:29N 36°07' W 005°22'0 0.0
2017-Oct-12 09:59N 36°07' W 005°22'0 0.0
2017-Oct-12 09:29N 36°07' W 005°22'0 0.1
2017-Oct-12 08:59N 36°07' W 005°22'0 0.0
2017-Oct-12 08:29N 36°07' W 005°22'0 0.0
2017-Oct-12 07:59N 36°07' W 005°22'0 0.0
2017-Oct-12 07:29N 36°07' W 005°22'0 0.1
2017-Oct-12 05:53N 36°08' W 005°22'0 0.1
2017-Oct-12 05:29N 36°08' W 005°22'0 0.0
2017-Oct-12 04:59N 36°08' W 005°22'0 0.0
2017-Oct-12 04:29N 36°08' W 005°22'0 0.1
2017-Oct-12 03:53N 36°08' W 005°22'1 1.8
2017-Oct-12 03:30N 36°07' W 005°22'2 4.8
2017-Oct-12 03:01N 36°06' W 005°20'612.9
2017-Oct-12 02:30N 36°08' W 005°12'2 4.5
2017-Oct-12 01:59N 36°09' W 005°10'0 0.4
2017-Oct-12 01:30N 36°09' W 005°09'0 0.6
2017-Oct-12 01:00N 36°09' W 005°09'0 0.1
2017-Oct-12 00:30N 36°09' W 005°09'0 0.7
2017-Oct-12 00:00N 36°09' W 005°09'2 3.7
2017-Oct-11 23:30N 36°08' W 005°11'714.1
2017-Oct-11 23:00N 36°04' W 005°18'713.3
2017-Oct-11 22:30N 35°59' W 005°24'612.8
2017-Oct-11 22:00N 35°56' W 005°31'713.7
2017-Oct-11 21:30N 35°54' W 005°39'714.0
2017-Oct-11 21:00N 35°54' W 005°47'2412.6
2017-Oct-11 19:08N 35°53' W 006°16'212.7
2017-Oct-11 19:00N 35°53' W 006°19'23312.3
2017-Oct-11 00:00N 35°48' W 011°06'612.5
2017-Oct-10 23:30N 35°48' W 011°14'612.6
2017-Oct-10 23:00N 35°48' W 011°22'612.5
2017-Oct-10 22:30N 35°47' W 011°29'612.5
2017-Oct-10 22:00N 35°47' W 011°37'612.6
2017-Oct-10 21:30N 35°47' W 011°45'612.7
2017-Oct-10 21:00N 35°47' W 011°53'612.7
2017-Oct-10 20:30N 35°46' W 012°01'612.7
2017-Oct-10 20:00N 35°46' W 012°08'612.7
2017-Oct-10 19:30N 35°46' W 012°16'612.5
2017-Oct-10 19:00N 35°45' W 012°24'612.6
2017-Oct-10 18:30N 35°45' W 012°32'612.5
2017-Oct-10 18:00N 35°45' W 012°39'612.6
2017-Oct-10 17:30N 35°45' W 012°47'612.6
2017-Oct-10 17:00N 35°45' W 012°55'612.6
2017-Oct-10 16:30N 35°44' W 013°03'612.4
2017-Oct-10 16:00N 35°44' W 013°10'612.5
2017-Oct-10 15:30N 35°44' W 013°18'612.6
2017-Oct-10 15:00N 35°44' W 013°26'1212.5
2017-Oct-10 14:00N 35°43' W 013°41'612.3
2017-Oct-10 13:29N 35°43' W 013°49'612.2
2017-Oct-10 13:00N 35°43' W 013°56'612.3
2017-Oct-10 12:30N 35°43' W 014°04'612.1
2017-Oct-10 11:58N 35°43' W 014°12'612.4
2017-Oct-10 11:30N 35°43' W 014°19'612.5
2017-Oct-10 10:59N 35°42' W 014°27'612.6
2017-Oct-10 10:30N 35°42' W 014°34'612.9
2017-Oct-10 10:00N 35°42' W 014°42'812.7
2017-Oct-10 09:24N 35°42' W 014°52'512.7
2017-Oct-10 09:00N 35°42' W 014°58'612.6
2017-Oct-10 08:30N 35°41' W 015°06'712.6
2017-Oct-10 07:59N 35°41' W 015°14'612.6
2017-Oct-10 07:30N 35°41' W 015°21'2112.8
2017-Oct-10 05:50N 35°40' W 015°47'1612.8
2017-Oct-10 04:34N 35°39' W 016°07'212.8
2017-Oct-10 04:23N 35°39' W 016°10'912.7
2017-Oct-10 03:39N 35°39' W 016°21'412.7
2017-Oct-10 03:23N 35°38' W 016°26'512.6
2017-Oct-10 02:59N 35°38' W 016°32'612.5
2017-Oct-10 02:30N 35°38' W 016°39'712.6
2017-Oct-10 01:55N 35°37' W 016°48'512.6
2017-Oct-10 01:29N 35°37' W 016°55'612.3
2017-Oct-10 01:00N 35°37' W 017°02'  
Track history (hours):
 
Tides and Currents Weather Stations Pressure Air Temp Water Temp Dewpoint Dewpoint Depression Visibility Wind Speed Wind Dir Waves Ship Positions

Bow Fagus

Last reported at 2017-Oct-16 11:15 UTC. Time now 2017-Oct-18 01:59 UTC.
Position N 34°55' E 019°50'.

Length 184 m; draft 10.8 m.

Type: Ship (hazmat cat C). MMSI: 258924000.

Date/timePositionNaut miles runAvg speedWind from/ knotsBaromVisibWave heightAir tempDewpointWater temp
2017-Oct-16 11:15N 34°55' E 019°50'412.9
2017-Oct-16 10:58N 34°56' E 019°46'713.0
2017-Oct-16 10:27N 34°58' E 019°38'19013.2
2017-Oct-15 20:03N 35°52' E 015°54'113.4
2017-Oct-15 19:58N 35°53' E 015°52'1813.4
2017-Oct-15 18:39N 35°59' E 015°32'213.5
2017-Oct-15 18:29N 36°00' E 015°30'1613.7
2017-Oct-15 17:18N 36°06' E 015°11'413.8
2017-Oct-15 17:00N 36°08' E 015°07'713.7
2017-Oct-15 16:30N 36°10' E 014°58'713.8
2017-Oct-15 16:00N 36°12' E 014°50'713.8
2017-Oct-15 15:30N 36°14' E 014°42'713.8
2017-Oct-15 15:00N 36°16' E 014°34'1413.7
2017-Oct-15 14:00N 36°20' E 014°18'713.7
2017-Oct-15 13:30N 36°22' E 014°10'713.8
2017-Oct-15 13:00N 36°25' E 014°02'713.8
2017-Oct-15 12:30N 36°27' E 013°54'713.7
2017-Oct-15 12:00N 36°30' E 013°46'713.7
2017-Oct-15 11:30N 36°32' E 013°38'713.6
2017-Oct-15 11:00N 36°35' E 013°30'813.6
2017-Oct-15 10:27N 36°37' E 013°21'613.7
2017-Oct-15 10:00N 36°39' E 013°14'713.5
2017-Oct-15 09:30N 36°41' E 013°06'913.3
2017-Oct-15 08:50N 36°45' E 012°56'3113.5
2017-Oct-15 06:33N 36°54' E 012°19'1313.3
2017-Oct-15 05:36N 37°00' E 012°05'113.2
2017-Oct-15 05:30N 37°01' E 012°04'713.3
2017-Oct-15 05:00N 37°05' E 011°57'613.2
2017-Oct-15 04:30N 37°07' E 011°49'713.3
2017-Oct-15 04:00N 37°10' E 011°41'34113.0
2017-Oct-14 01:46N 37°32' E 004°34'813.3
2017-Oct-14 01:08N 37°31' E 004°23'213.3
2017-Oct-14 01:00N 37°30' E 004°21'713.2
2017-Oct-14 00:30N 37°29' E 004°13'713.1
2017-Oct-14 00:00N 37°29' E 004°05'713.1
2017-Oct-13 23:30N 37°28' E 003°56'613.0
2017-Oct-13 23:00N 37°27' E 003°48'613.0
2017-Oct-13 22:30N 37°26' E 003°40'712.9
2017-Oct-13 22:00N 37°25' E 003°32'713.1
2017-Oct-13 21:27N 37°23' E 003°23'613.2
2017-Oct-13 20:59N 37°21' E 003°16'713.1
2017-Oct-13 20:26N 37°19' E 003°07'613.1
2017-Oct-13 20:00N 37°18' E 003°00'613.1
2017-Oct-13 19:30N 37°16' E 002°53'612.8
2017-Oct-13 19:00N 37°15' E 002°45'612.9
2017-Oct-13 18:30N 37°13' E 002°37'712.9
2017-Oct-13 17:59N 37°12' E 002°29'612.9
2017-Oct-13 17:30N 37°11' E 002°21'612.8
2017-Oct-13 17:00N 37°09' E 002°13'612.8
2017-Oct-13 16:30N 37°08' E 002°05'713.0
2017-Oct-13 16:00N 37°06' E 001°58'612.9
2017-Oct-13 15:30N 37°04' E 001°50'713.0
2017-Oct-13 15:00N 37°03' E 001°42'713.1
2017-Oct-13 14:30N 37°01' E 001°34'713.3
2017-Oct-13 14:00N 36°59' E 001°26'713.4
2017-Oct-13 13:30N 36°58' E 001°18'713.3
2017-Oct-13 13:00N 36°56' E 001°10'613.1
2017-Oct-13 12:30N 36°55' E 001°02'813.1
2017-Oct-13 11:55N 36°53' E 000°52'612.9
2017-Oct-13 11:30N 36°52' E 000°46'813.4
2017-Oct-13 10:53N 36°50' E 000°36'513.4
2017-Oct-13 10:30N 36°48' E 000°30'713.4
2017-Oct-13 10:00N 36°46' E 000°22'713.4
2017-Oct-13 09:28N 36°44' E 000°13'613.3
2017-Oct-13 09:00N 36°43' E 000°05'713.5
2017-Oct-13 08:28N 36°41' W 000°03'813.5
2017-Oct-13 07:53N 36°39' W 000°13'513.5
2017-Oct-13 07:30N 36°38' W 000°19'713.4
2017-Oct-13 06:58N 36°36' W 000°28'613.3
2017-Oct-13 06:30N 36°35' W 000°35'713.5
2017-Oct-13 06:00N 36°33' W 000°43'713.6
2017-Oct-13 05:29N 36°32' W 000°52'713.4
2017-Oct-13 04:59N 36°30' W 000°60'1913.5
2017-Oct-13 03:35N 36°25' W 001°23'213.7
2017-Oct-13 03:27N 36°25' W 001°25'714.0
2017-Oct-13 02:57N 36°23' W 001°33'17113.4
2017-Oct-12 14:14N 36°05' W 005°04'312.9
2017-Oct-12 14:00N 36°05' W 005°07'713.3
2017-Oct-12 13:31N 36°05' W 005°16'510.3
2017-Oct-12 13:00N 36°07' W 005°22'1 1.5
2017-Oct-12 12:29N 36°07' W 005°22'0 0.0
2017-Oct-12 11:53N 36°07' W 005°22'0 0.0
2017-Oct-12 11:23N 36°07' W 005°22'0 0.0
2017-Oct-12 10:59N 36°07' W 005°22'0 0.0
2017-Oct-12 10:29N 36°07' W 005°22'0 0.0
2017-Oct-12 09:59N 36°07' W 005°22'0 0.0
2017-Oct-12 09:29N 36°07' W 005°22'0 0.1
2017-Oct-12 08:59N 36°07' W 005°22'0 0.0
2017-Oct-12 08:29N 36°07' W 005°22'0 0.0
2017-Oct-12 07:59N 36°07' W 005°22'0 0.0
2017-Oct-12 07:29N 36°07' W 005°22'0 0.1
2017-Oct-12 05:53N 36°08' W 005°22'0 0.1
2017-Oct-12 05:29N 36°08' W 005°22'0 0.0
2017-Oct-12 04:59N 36°08' W 005°22'0 0.0
2017-Oct-12 04:29N 36°08' W 005°22'0 0.1
2017-Oct-12 03:53N 36°08' W 005°22'1 1.8
2017-Oct-12 03:30N 36°07' W 005°22'2 4.8
2017-Oct-12 03:01N 36°06' W 005°20'612.9
2017-Oct-12 02:30N 36°08' W 005°12'2 4.5
2017-Oct-12 01:59N 36°09' W 005°10'0 0.4
2017-Oct-12 01:30N 36°09' W 005°09'0 0.6
2017-Oct-12 01:00N 36°09' W 005°09'0 0.1
2017-Oct-12 00:30N 36°09' W 005°09'0 0.7
2017-Oct-12 00:00N 36°09' W 005°09'2 3.7
2017-Oct-11 23:30N 36°08' W 005°11'714.1
2017-Oct-11 23:00N 36°04' W 005°18'713.3
2017-Oct-11 22:30N 35°59' W 005°24'612.8
2017-Oct-11 22:00N 35°56' W 005°31'713.7
2017-Oct-11 21:30N 35°54' W 005°39'714.0
2017-Oct-11 21:00N 35°54' W 005°47'2412.6
2017-Oct-11 19:08N 35°53' W 006°16'212.7
2017-Oct-11 19:00N 35°53' W 006°19'23312.3
2017-Oct-11 00:00N 35°48' W 011°06'612.5
2017-Oct-10 23:30N 35°48' W 011°14'612.6
2017-Oct-10 23:00N 35°48' W 011°22'612.5
2017-Oct-10 22:30N 35°47' W 011°29'612.5
2017-Oct-10 22:00N 35°47' W 011°37'612.6
2017-Oct-10 21:30N 35°47' W 011°45'612.7
2017-Oct-10 21:00N 35°47' W 011°53'612.7
2017-Oct-10 20:30N 35°46' W 012°01'612.7
2017-Oct-10 20:00N 35°46' W 012°08'612.7
2017-Oct-10 19:30N 35°46' W 012°16'612.5
2017-Oct-10 19:00N 35°45' W 012°24'612.6
2017-Oct-10 18:30N 35°45' W 012°32'612.5
2017-Oct-10 18:00N 35°45' W 012°39'612.6
2017-Oct-10 17:30N 35°45' W 012°47'612.6
2017-Oct-10 17:00N 35°45' W 012°55'612.6
2017-Oct-10 16:30N 35°44' W 013°03'612.4
2017-Oct-10 16:00N 35°44' W 013°10'612.5
2017-Oct-10 15:30N 35°44' W 013°18'612.6
2017-Oct-10 15:00N 35°44' W 013°26'1212.5
2017-Oct-10 14:00N 35°43' W 013°41'612.3
2017-Oct-10 13:29N 35°43' W 013°49'612.2
2017-Oct-10 13:00N 35°43' W 013°56'612.3
2017-Oct-10 12:30N 35°43' W 014°04'612.1
2017-Oct-10 11:58N 35°43' W 014°12'612.4
2017-Oct-10 11:30N 35°43' W 014°19'612.5
2017-Oct-10 10:59N 35°42' W 014°27'612.6
2017-Oct-10 10:30N 35°42' W 014°34'612.9
2017-Oct-10 10:00N 35°42' W 014°42'812.7
2017-Oct-10 09:24N 35°42' W 014°52'512.7
2017-Oct-10 09:00N 35°42' W 014°58'612.6
2017-Oct-10 08:30N 35°41' W 015°06'712.6
2017-Oct-10 07:59N 35°41' W 015°14'612.6
2017-Oct-10 07:30N 35°41' W 015°21'2112.8
2017-Oct-10 05:50N 35°40' W 015°47'1612.8
2017-Oct-10 04:34N 35°39' W 016°07'212.8
2017-Oct-10 04:23N 35°39' W 016°10'912.7
2017-Oct-10 03:39N 35°39' W 016°21'412.7
2017-Oct-10 03:23N 35°38' W 016°26'512.6
2017-Oct-10 02:59N 35°38' W 016°32'612.5
2017-Oct-10 02:30N 35°38' W 016°39'712.6
2017-Oct-10 01:55N 35°37' W 016°48'512.6
2017-Oct-10 01:29N 35°37' W 016°55'612.3
2017-Oct-10 01:00N 35°37' W 017°02'  

Dump ship's entire track history